Terminal Aerodrome Forecast
Issued by NWS

Home | Current Version | Previous Version | Text Only | Print | Product List | Glossary On
Versions: 1 2 3 4 5 6 7 8 9 10 11 12 13 14
000
FTUS41 KLWX 231700
TAFMTN
TAF
KMTN 231735Z 2318/2418 19008KT P6SM SCT040
     FM232000 20009KT P6SM VCTS BKN040CB
     FM240200 22004KT P6SM VCTS BKN040CB BKN080
     FM240600 VRB03KT P6SM BKN040 BKN080
     FM240900 34007KT P6SM BKN040 OVC080=

USA.gov is the U.S. government's official web portal to all federal, state and local government web resources and services.